EZY31YR LGAV-EGKK
Flight info
| Callsign | EZY31YR |
|---|---|
| Flight time | N/A |
| Altitude | 34000 |
| Route | KOR UL53 OLGAT DCT AIOSA DCT IXONA DCT ROTAR DCT BORMI DCT RESIA DCT ELMUR DCT RIPUS DCT DITON DCT HOC DCT LUL DCT RLP DCT ROTSI DCT KOTUN DCT NINAL DCT KESAX DCT KUNAV |
| Aircraft | A320/M-SDE2E3FGHIRWXY/LB1 |
Departure
| Time | 2026-05-04 17:07 |
|---|---|
| Airport | Athens Eleftherios Venizelos International Airport (LGAV) |
Arrival
| Time | N/A |
|---|---|
| Airport | London Gatwick Airport (EGKK) |
| Time | Latitude | Longitude | Altitude | Speed | Heading |
|---|---|---|---|---|---|
| 2026-05-04 16:37 | 37.93080 | 23.94458 | 293 ft | 0 kts | 213° |
| 2026-05-04 16:55 | 37.93094 | 23.94469 | 292 ft | 4 kts | 213° |
| 2026-05-04 16:56 | 37.93136 | 23.94503 | 292 ft | 4 kts | 204° |
| 2026-05-04 16:56 | 37.93173 | 23.94478 | 286 ft | 0 kts | 127° |
| 2026-05-04 17:00 | 37.93089 | 23.94593 | 291 ft | 4 kts | 179° |
| 2026-05-04 17:00 | 37.92942 | 23.94464 | 291 ft | 15 kts | 217° |
| 2026-05-04 17:01 | 37.92779 | 23.94308 | 293 ft | 13 kts | 217° |
| 2026-05-04 17:01 | 37.92656 | 23.94192 | 292 ft | 8 kts | 217° |
| 2026-05-04 17:02 | 37.92586 | 23.94124 | 295 ft | 5 kts | 217° |
| 2026-05-04 17:02 | 37.92487 | 23.94076 | 296 ft | 6 kts | 149° |
| 2026-05-04 17:03 | 37.92454 | 23.94123 | 294 ft | 10 kts | 128° |
| 2026-05-04 17:03 | 37.92414 | 23.94199 | 294 ft | 10 kts | 111° |
| 2026-05-04 17:03 | 37.92413 | 23.94296 | 292 ft | 0 kts | 86° |
| 2026-05-04 17:06 | 37.92416 | 23.94358 | 294 ft | 7 kts | 86° |
| 2026-05-04 17:06 | 37.92434 | 23.94405 | 297 ft | 9 kts | 42° |
| 2026-05-04 17:07 | 37.93131 | 23.95067 | 288 ft | 125 kts | 37° |
| 2026-05-04 17:07 | 37.93655 | 23.95564 | 278 ft | 158 kts | 37° |
| 2026-05-04 17:07 | 37.94964 | 23.96796 | 799 ft | 179 kts | 40° |
| 2026-05-04 17:07 | 37.95967 | 23.97754 | 1505 ft | 184 kts | 35° |
| 2026-05-04 17:08 | 37.97017 | 23.98776 | 1877 ft | 200 kts | 35° |
| 2026-05-04 17:08 | 37.99464 | 24.01131 | 2537 ft | 238 kts | 35° |
| 2026-05-04 17:08 | 38.00795 | 24.02408 | 3311 ft | 241 kts | 34° |
| 2026-05-04 17:09 | 38.02131 | 24.03692 | 4137 ft | 241 kts | 34° |
| 2026-05-04 17:09 | 38.03472 | 24.04981 | 4960 ft | 242 kts | 33° |
| 2026-05-04 17:09 | 38.04816 | 24.06277 | 5745 ft | 244 kts | 33° |
| 2026-05-04 17:10 | 38.07517 | 24.08881 | 7276 ft | 248 kts | 33° |
| 2026-05-04 17:10 | 38.08735 | 24.15297 | 9025 ft | 298 kts | 113° |
| 2026-05-04 17:11 | 38.07494 | 24.17431 | 9731 ft | 307 kts | 138° |
| 2026-05-04 17:11 | 38.05623 | 24.18737 | 10384 ft | 312 kts | 165° |
| 2026-05-04 17:11 | 38.01286 | 24.17955 | 10974 ft | 340 kts | 212° |
| 2026-05-04 17:12 | 37.99456 | 24.16008 | 11284 ft | 348 kts | 235° |
| 2026-05-04 17:12 | 37.98141 | 24.10287 | 12351 ft | 345 kts | 277° |
| 2026-05-04 17:13 | 37.98734 | 24.01021 | 14026 ft | 359 kts | 278° |
| 2026-05-04 17:14 | 37.99343 | 23.91434 | 15672 ft | 368 kts | 277° |
| 2026-05-04 17:14 | 37.99539 | 23.88191 | 16222 ft | 370 kts | 277° |
| 2026-05-04 17:14 | 37.99928 | 23.81630 | 17311 ft | 376 kts | 277° |
| 2026-05-04 17:15 | 38.00126 | 23.78317 | 17855 ft | 378 kts | 277° |
| 2026-05-04 17:15 | 38.00533 | 23.71623 | 18819 ft | 384 kts | 276° |
| 2026-05-04 17:16 | 38.00939 | 23.64837 | 19714 ft | 388 kts | 276° |
| 2026-05-04 17:16 | 38.01540 | 23.54502 | 21041 ft | 395 kts | 275° |
| 2026-05-04 17:17 | 38.01741 | 23.51018 | 21465 ft | 398 kts | 275° |
| 2026-05-04 17:17 | 38.02348 | 23.40433 | 22779 ft | 403 kts | 276° |
| 2026-05-04 17:18 | 38.02546 | 23.36895 | 23303 ft | 402 kts | 277° |
| 2026-05-04 17:18 | 38.02874 | 23.30998 | 23966 ft | 404 kts | 277° |
| 2026-05-04 17:19 | 38.03270 | 23.23865 | 24666 ft | 407 kts | 277° |
| 2026-05-04 17:19 | 38.03731 | 23.15528 | 25494 ft | 409 kts | 277° |
| 2026-05-04 17:20 | 38.04117 | 23.08313 | 26245 ft | 409 kts | 279° |
| 2026-05-04 17:20 | 38.04441 | 23.02310 | 27001 ft | 407 kts | 279° |
| 2026-05-04 17:20 | 38.04635 | 22.98731 | 27326 ft | 408 kts | 280° |
| 2026-05-04 17:21 | 38.05018 | 22.91531 | 27968 ft | 410 kts | 280° |
| 2026-05-04 17:21 | 38.05393 | 22.84327 | 28580 ft | 413 kts | 280° |
| 2026-05-04 17:22 | 38.05643 | 22.79453 | 28956 ft | 415 kts | 280° |
| 2026-05-04 17:22 | 38.05768 | 22.77030 | 29122 ft | 415 kts | 280° |
| 2026-05-04 17:23 | 38.07931 | 22.66736 | 30019 ft | 398 kts | 303° |
| 2026-05-04 17:23 | 38.09423 | 22.63793 | 30256 ft | 396 kts | 309° |
| 2026-05-04 17:23 | 38.12565 | 22.58070 | 30822 ft | 394 kts | 308° |
| 2026-05-04 17:24 | 38.14126 | 22.55209 | 31095 ft | 394 kts | 308° |
| 2026-05-04 17:24 | 38.18799 | 22.46640 | 31897 ft | 393 kts | 308° |
| 2026-05-04 17:25 | 38.20352 | 22.43788 | 32141 ft | 392 kts | 308° |
| 2026-05-04 17:25 | 38.23447 | 22.38088 | 32682 ft | 391 kts | 308° |